createdAt,value
2022-11-14T00:01:08.816Z,82.97
2022-11-14T00:03:37.767Z,83.47
2022-11-14T00:06:07.215Z,83.19
2022-11-14T00:08:35.297Z,82.89
2022-11-14T00:11:03.197Z,83.21
2022-11-14T00:13:30.812Z,82.58
2022-11-14T00:15:58.428Z,82.57
2022-11-14T00:18:26.022Z,82.22
2022-11-14T00:20:55.067Z,82.23
2022-11-14T00:23:23.070Z,81.93
2022-11-14T00:25:50.908Z,81.64
2022-11-14T00:28:18.517Z,82.16
2022-11-14T00:30:48.023Z,82.00
2022-11-14T00:33:20.135Z,81.56
2022-11-14T00:35:52.860Z,81.34
2022-11-14T00:38:22.248Z,82.59
2022-11-14T00:40:49.867Z,83.18
2022-11-14T00:43:17.500Z,83.53
2022-11-14T00:45:45.201Z,83.07
2022-11-14T00:48:12.771Z,82.55
2022-11-14T00:50:40.580Z,82.15
2022-11-14T00:53:08.304Z,82.19
2022-11-14T00:55:37.278Z,81.53
2022-11-14T00:58:05.021Z,81.36
2022-11-14T01:00:32.794Z,81.27
2022-11-14T01:03:00.418Z,81.26
2022-11-14T01:05:28.869Z,81.63
2022-11-14T01:07:56.520Z,81.36
2022-11-14T01:10:24.096Z,81.14
2022-11-14T01:12:53.116Z,81.16
2022-11-14T01:15:20.751Z,81.50
2022-11-14T01:17:48.318Z,83.05
2022-11-14T01:20:16.682Z,83.73
2022-11-14T01:22:44.339Z,84.65
2022-11-14T01:25:11.945Z,84.96
2022-11-14T01:27:39.548Z,84.64
2022-11-14T01:30:09.823Z,84.23
2022-11-14T01:32:37.406Z,83.32
2022-11-14T01:35:05.398Z,82.98
2022-11-14T01:37:33.049Z,82.74
2022-11-14T01:40:00.879Z,82.97
2022-11-14T01:42:28.470Z,82.98
2022-11-14T01:44:56.417Z,82.97
2022-11-14T01:47:30.001Z,82.58
2022-11-14T01:50:00.632Z,81.77
2022-11-14T01:52:32.751Z,81.38
2022-11-14T01:55:02.950Z,80.99
2022-11-14T01:57:34.704Z,80.97
2022-11-14T02:00:05.347Z,80.65
2022-11-14T02:02:34.387Z,80.88
2022-11-14T02:05:06.810Z,81.35
2022-11-14T02:07:38.117Z,81.24
2022-11-14T02:10:08.882Z,81.51
2022-11-14T02:12:37.815Z,81.61
2022-11-14T02:15:06.076Z,81.64
2022-11-14T02:17:35.229Z,81.32
2022-11-14T02:20:17.700Z,80.98
2022-11-14T02:22:45.310Z,80.53
2022-11-14T02:25:16.043Z,80.38
2022-11-14T02:27:44.604Z,80.34
2022-11-14T02:30:15.259Z,80.17
2022-11-14T02:33:10.407Z,80.67
2022-11-14T02:35:31.906Z,80.45
2022-11-14T02:37:59.458Z,80.47
2022-11-14T02:40:27.119Z,80.45
2022-11-14T02:42:54.809Z,80.81
2022-11-14T02:45:22.550Z,80.72
2022-11-14T02:47:50.155Z,80.97
2022-11-14T02:50:18.388Z,80.70
2022-11-14T02:52:47.314Z,80.86
2022-11-14T02:55:22.239Z,80.63
2022-11-14T02:57:49.800Z,80.53
2022-11-14T03:00:18.695Z,80.56
2022-11-14T03:02:47.659Z,80.44
2022-11-14T03:05:15.380Z,80.42
2022-11-14T03:07:42.975Z,80.62
2022-11-14T03:10:14.014Z,80.71
2022-11-14T03:12:41.678Z,80.69
2022-11-14T03:15:10.766Z,81.20
2022-11-14T03:17:38.370Z,81.28
2022-11-14T03:20:07.208Z,81.62
2022-11-14T03:22:34.772Z,81.44
2022-11-14T03:25:02.828Z,81.21
2022-11-14T03:27:31.777Z,81.66
2022-11-14T03:29:59.512Z,82.07
2022-11-14T03:32:27.251Z,81.86
2022-11-14T03:34:55.072Z,81.98
2022-11-14T03:37:22.861Z,81.63
2022-11-14T03:39:50.478Z,80.82
2022-11-14T03:42:18.056Z,80.25
2022-11-14T03:44:47.104Z,80.03
2022-11-14T03:47:14.744Z,80.02
2022-11-14T03:49:44.938Z,80.16
2022-11-14T03:52:12.555Z,80.46
2022-11-14T03:54:40.349Z,80.27
2022-11-14T03:57:08.100Z,80.60
2022-11-14T03:59:35.699Z,80.22
2022-11-14T04:02:04.769Z,80.52
2022-11-14T04:04:32.362Z,80.70
2022-11-14T04:07:00.009Z,80.65
2022-11-14T04:09:27.723Z,80.50
2022-11-14T04:11:55.281Z,80.37
2022-11-14T04:14:22.887Z,79.39
2022-11-14T04:16:50.523Z,80.14
2022-11-14T04:19:19.468Z,80.36
2022-11-14T04:21:47.086Z,80.72
2022-11-14T04:24:14.715Z,80.68
2022-11-14T04:26:42.297Z,80.65
2022-11-14T04:29:09.900Z,80.48
2022-11-14T04:31:37.617Z,80.66
2022-11-14T04:34:05.233Z,81.38
2022-11-14T04:36:34.193Z,81.44
2022-11-14T04:39:01.876Z,81.44
2022-11-14T04:41:29.438Z,81.26
2022-11-14T04:43:57.028Z,80.86
2022-11-14T04:46:24.636Z,80.65
2022-11-14T04:48:52.234Z,79.90
2022-11-14T04:51:19.839Z,80.02
2022-11-14T04:53:48.808Z,81.25
2022-11-14T04:56:16.412Z,82.29
2022-11-14T04:58:44.153Z,82.91
2022-11-14T05:01:13.031Z,82.57
2022-11-14T05:03:40.755Z,81.47
2022-11-14T05:06:08.805Z,81.08
2022-11-14T05:08:36.536Z,81.71
2022-11-14T05:11:05.692Z,81.07
2022-11-14T05:13:33.300Z,81.38
2022-11-14T05:16:01.697Z,81.94
2022-11-14T05:18:29.559Z,81.68
2022-11-14T05:21:00.020Z,82.33
2022-11-14T05:23:28.187Z,82.26
2022-11-14T05:26:03.580Z,82.13
2022-11-14T05:28:32.962Z,81.69
2022-11-14T05:31:05.264Z,81.06
2022-11-14T05:33:33.159Z,79.05
2022-11-14T05:36:04.050Z,78.65
2022-11-14T05:38:31.984Z,79.03
2022-11-14T05:41:00.422Z,79.74
2022-11-14T05:43:31.806Z,80.12
2022-11-14T05:46:00.669Z,80.92
2022-11-14T05:48:29.097Z,78.70
2022-11-14T05:50:57.659Z,78.69
2022-11-14T05:53:26.424Z,79.27
2022-11-14T05:55:55.149Z,79.91
2022-11-14T05:58:23.164Z,79.90
2022-11-14T06:00:54.389Z,80.90
2022-11-14T06:03:22.337Z,80.36
2022-11-14T06:05:49.979Z,81.01
2022-11-14T06:08:17.769Z,80.59
2022-11-14T06:10:45.420Z,80.37
2022-11-14T06:13:13.051Z,81.24
2022-11-14T06:15:40.711Z,81.40
2022-11-14T06:18:09.722Z,81.74
2022-11-14T06:20:37.613Z,82.57
2022-11-14T06:23:05.267Z,82.48
2022-11-14T06:25:32.892Z,83.57
2022-11-14T06:28:00.532Z,83.36
2022-11-14T06:30:28.121Z,82.13
2022-11-14T06:32:59.008Z,82.35
2022-11-14T06:35:28.470Z,82.15
2022-11-14T06:37:56.106Z,82.16
2022-11-14T06:40:23.709Z,82.42
2022-11-14T06:42:51.332Z,82.75
2022-11-14T06:45:18.944Z,82.16
2022-11-14T06:47:46.552Z,82.26
2022-11-14T06:50:14.771Z,82.82
2022-11-14T06:52:43.721Z,83.37
2022-11-14T06:55:11.324Z,82.93
2022-11-14T06:57:38.987Z,81.45
2022-11-14T07:00:07.883Z,82.22
2022-11-14T07:02:35.678Z,82.34
2022-11-14T07:05:03.383Z,81.47
2022-11-14T07:07:31.735Z,81.02
2022-11-14T07:10:00.765Z,80.51
2022-11-14T07:12:29.530Z,80.14
2022-11-14T07:14:57.148Z,79.51
2022-11-14T07:17:29.819Z,78.86
2022-11-14T07:19:58.759Z,79.63
2022-11-14T07:22:26.345Z,80.08
2022-11-14T07:24:53.941Z,78.62
2022-11-14T07:27:22.924Z,78.78
2022-11-14T07:29:50.530Z,79.12
2022-11-14T07:32:18.258Z,79.19
2022-11-14T07:34:45.815Z,78.82
2022-11-14T07:37:13.558Z,79.28
2022-11-14T07:39:41.346Z,78.94
2022-11-14T07:42:09.029Z,79.78
2022-11-14T07:44:38.028Z,79.69
2022-11-14T07:47:05.709Z,79.58
2022-11-14T07:49:34.410Z,79.24
2022-11-14T07:52:02.089Z,78.87
2022-11-14T07:54:29.679Z,79.22
2022-11-14T07:56:57.628Z,79.46
2022-11-14T07:59:25.303Z,79.27
2022-11-14T08:01:54.299Z,79.58
2022-11-14T08:04:21.892Z,79.28
2022-11-14T08:06:49.555Z,78.78
2022-11-14T08:09:17.440Z,78.59
2022-11-14T08:11:51.753Z,78.88
2022-11-14T08:14:19.387Z,79.90
2022-11-14T08:16:46.995Z,80.75
2022-11-14T08:19:16.825Z,81.13
2022-11-14T08:21:44.970Z,80.79
2022-11-14T08:24:12.646Z,80.80
2022-11-14T08:26:40.560Z,82.60
2022-11-14T08:29:08.198Z,83.38
2022-11-14T08:31:35.907Z,83.22
2022-11-14T08:34:03.567Z,82.48
2022-11-14T08:36:32.500Z,81.87
2022-11-14T08:39:01.994Z,81.47
2022-11-14T08:41:30.213Z,81.02
2022-11-14T08:43:57.897Z,80.03
2022-11-14T08:46:25.591Z,79.50
2022-11-14T08:48:53.243Z,79.10
2022-11-14T08:51:20.974Z,78.51
2022-11-14T08:53:51.427Z,77.59
2022-11-14T08:56:19.318Z,76.83
2022-11-14T08:58:46.993Z,76.24
2022-11-14T09:01:14.616Z,75.81
2022-11-14T09:03:42.358Z,75.81
2022-11-14T09:06:10.039Z,72.91
2022-11-14T09:08:37.694Z,70.31
2022-11-14T09:11:09.953Z,70.42
2022-11-14T09:13:37.885Z,71.08
2022-11-14T09:16:06.131Z,72.31
2022-11-14T09:18:33.972Z,73.34
2022-11-14T09:21:03.073Z,74.03
2022-11-14T09:23:31.302Z,74.85
2022-11-14T09:25:59.240Z,75.78
2022-11-14T09:28:28.356Z,76.40
2022-11-14T09:31:01.372Z,76.30
2022-11-14T09:33:29.392Z,76.08
2022-11-14T09:35:58.750Z,76.38
2022-11-14T09:38:26.513Z,76.33
2022-11-14T09:41:05.485Z,75.53
2022-11-14T09:43:48.029Z,74.66
2022-11-14T09:46:21.707Z,74.53
2022-11-14T09:48:50.157Z,74.49
2022-11-14T09:51:21.969Z,73.83
2022-11-14T09:53:55.302Z,73.81
2022-11-14T09:56:25.986Z,74.26
2022-11-14T09:58:56.630Z,74.97
2022-11-14T10:01:35.786Z,74.93
2022-11-14T10:04:14.363Z,74.35
2022-11-14T10:06:55.044Z,74.08
2022-11-14T10:09:37.189Z,74.14
2022-11-14T10:12:12.848Z,73.84
2022-11-14T10:15:03.361Z,73.27
2022-11-14T10:17:45.635Z,72.75
2022-11-14T10:20:21.170Z,71.94
2022-11-14T10:23:03.056Z,69.96
2022-11-14T10:25:38.334Z,68.73
2022-11-14T10:28:32.181Z,68.25
2022-11-14T10:31:09.055Z,67.71
2022-11-14T10:33:48.103Z,65.30
2022-11-14T10:36:29.486Z,62.93
2022-11-14T10:39:05.124Z,60.04
2022-11-14T10:41:55.918Z,56.99
2022-11-14T10:44:27.415Z,55.03
2022-11-14T10:47:02.291Z,54.95
2022-11-14T10:49:33.507Z,55.45
2022-11-14T10:52:05.945Z,55.46
2022-11-14T10:54:40.566Z,55.51
2022-11-14T10:57:16.939Z,53.66
2022-11-14T10:59:44.584Z,53.09
2022-11-14T11:02:14.001Z,52.26
2022-11-14T11:04:43.070Z,51.90
2022-11-14T11:07:40.688Z,51.17
2022-11-14T11:10:37.560Z,50.54
2022-11-14T11:13:05.244Z,48.99
2022-11-14T11:15:40.741Z,48.33
2022-11-14T11:18:26.590Z,45.97
2022-11-14T11:21:09.679Z,42.74
2022-11-14T11:23:48.441Z,41.97
2022-11-14T11:26:22.944Z,42.65
2022-11-14T11:29:04.777Z,42.67
2022-11-14T11:31:51.161Z,44.84
2022-11-14T11:34:25.302Z,47.55
2022-11-14T11:36:58.277Z,50.34
2022-11-14T11:39:31.050Z,52.81
2022-11-14T11:42:10.451Z,54.81
2022-11-14T11:44:44.967Z,56.83
2022-11-14T11:47:16.487Z,58.37
2022-11-14T11:49:54.276Z,59.30
2022-11-14T11:52:33.146Z,60.50
2022-11-14T11:55:06.377Z,62.18
2022-11-14T11:57:37.856Z,63.51
2022-11-14T12:00:15.941Z,64.75
2022-11-14T12:02:50.128Z,65.03
2022-11-14T12:05:27.355Z,66.05
2022-11-14T12:08:04.190Z,66.55
2022-11-14T12:10:34.883Z,67.66
2022-11-14T12:13:44.312Z,68.42
2022-11-14T12:16:26.147Z,69.07
2022-11-14T12:19:07.589Z,69.59
2022-11-14T12:21:58.937Z,69.80
2022-11-14T12:24:52.219Z,69.72
2022-11-14T12:28:04.421Z,69.24
2022-11-14T12:30:35.064Z,69.65
2022-11-14T12:33:08.649Z,70.06
2022-11-14T12:35:39.385Z,70.48
2022-11-14T12:38:19.507Z,70.65
2022-11-14T12:40:53.553Z,70.75
2022-11-14T12:43:36.815Z,71.17
2022-11-14T12:46:09.184Z,71.25
2022-11-14T12:48:39.349Z,71.87
2022-11-14T12:51:42.434Z,72.05
2022-11-14T12:54:45.016Z,72.10
2022-11-14T12:57:37.817Z,72.82
2022-11-14T13:00:09.938Z,72.71
2022-11-14T13:03:13.542Z,73.16
2022-11-14T13:05:55.150Z,73.41
2022-11-14T13:08:58.639Z,73.57
2022-11-14T13:12:03.523Z,73.80
2022-11-14T13:14:50.431Z,73.84
2022-11-14T13:17:48.027Z,74.07
2022-11-14T13:20:46.032Z,74.05
2022-11-14T13:23:47.119Z,74.45
2022-11-14T13:26:40.949Z,74.48
2022-11-14T13:30:00.070Z,74.15
2022-11-14T13:33:04.944Z,73.21
2022-11-14T13:36:02.233Z,73.46
2022-11-14T13:39:18.710Z,73.65
2022-11-14T13:42:31.960Z,73.89
2022-11-14T13:45:28.088Z,74.21
2022-11-14T13:48:25.785Z,74.60
2022-11-14T13:51:00.682Z,74.16
2022-11-14T13:53:34.670Z,74.71
2022-11-14T13:56:14.739Z,74.73
2022-11-14T13:58:56.334Z,74.24
2022-11-14T14:01:40.981Z,73.66
2022-11-14T14:04:21.485Z,73.04
2022-11-14T14:07:04.154Z,73.13
2022-11-14T14:09:39.852Z,72.74
2022-11-14T14:12:35.892Z,73.02
2022-11-14T14:15:20.042Z,73.40
2022-11-14T14:17:59.586Z,73.09
2022-11-14T14:20:36.918Z,73.15
2022-11-14T14:23:18.014Z,72.77
2022-11-14T14:25:54.030Z,73.49
2022-11-14T14:28:31.628Z,73.78
2022-11-14T14:31:05.287Z,74.15
2022-11-14T14:33:42.674Z,74.67
2022-11-14T14:36:22.710Z,74.85
2022-11-14T14:38:50.942Z,75.46
2022-11-14T14:41:21.601Z,75.47
2022-11-14T14:43:56.256Z,76.03
2022-11-14T14:46:32.083Z,76.03
2022-11-14T14:49:04.180Z,76.53
2022-11-14T14:51:34.269Z,76.60
2022-11-14T14:54:02.368Z,76.77
2022-11-14T14:56:30.504Z,76.54
2022-11-14T14:58:58.372Z,77.05
2022-11-14T15:01:33.142Z,77.32
2022-11-14T15:04:06.358Z,76.92
2022-11-14T15:06:36.216Z,76.81
2022-11-14T15:09:10.589Z,77.35
2022-11-14T15:11:42.615Z,77.62
2022-11-14T15:14:14.973Z,77.77
2022-11-14T15:16:43.934Z,77.84
2022-11-14T15:19:14.910Z,77.99
2022-11-14T15:21:46.098Z,78.08
2022-11-14T15:24:16.585Z,77.92
2022-11-14T15:26:46.031Z,77.97
2022-11-14T15:29:19.423Z,77.56
2022-11-14T15:31:49.841Z,77.67
2022-11-14T15:34:29.910Z,77.50
2022-11-14T15:37:21.673Z,77.78
2022-11-14T15:39:49.596Z,77.63
2022-11-14T15:42:20.970Z,77.51
2022-11-14T15:44:49.682Z,77.10
2022-11-14T15:47:23.712Z,76.88
2022-11-14T15:50:00.344Z,77.35
2022-11-14T15:52:33.221Z,77.58
2022-11-14T15:55:01.200Z,77.38
2022-11-14T15:57:30.549Z,77.30
2022-11-14T15:59:58.263Z,77.72
2022-11-14T16:02:29.713Z,78.03
2022-11-14T16:04:59.940Z,77.90
2022-11-14T16:07:29.338Z,77.90
2022-11-14T16:09:57.070Z,78.01
2022-11-14T16:12:26.578Z,77.92
2022-11-14T16:14:54.219Z,77.79
2022-11-14T16:17:21.806Z,78.15
2022-11-14T16:19:49.428Z,78.60
2022-11-14T16:22:19.180Z,78.63
2022-11-14T16:24:46.848Z,79.04
2022-11-14T16:27:15.362Z,78.67
2022-11-14T16:29:43.119Z,79.05
2022-11-14T16:32:11.633Z,79.20
2022-11-14T16:34:39.270Z,78.83
2022-11-14T16:37:07.219Z,79.24
2022-11-14T16:39:38.925Z,79.24
2022-11-14T16:42:07.289Z,79.28
2022-11-14T16:44:41.127Z,79.16
2022-11-14T16:47:14.250Z,79.45
2022-11-14T16:49:41.900Z,79.40
2022-11-14T16:52:12.953Z,79.95
2022-11-14T16:54:41.970Z,80.10
2022-11-14T16:57:09.610Z,80.17
2022-11-14T16:59:37.189Z,80.28
2022-11-14T17:02:05.545Z,80.22
2022-11-14T17:04:33.532Z,80.25
2022-11-14T17:07:01.168Z,80.36
2022-11-14T17:09:28.910Z,80.17
2022-11-14T17:11:57.847Z,80.06
2022-11-14T17:14:25.456Z,80.44
2022-11-14T17:16:53.103Z,80.30
2022-11-14T17:19:20.709Z,80.31
2022-11-14T17:21:48.310Z,81.01
2022-11-14T17:24:15.963Z,81.27
2022-11-14T17:26:43.816Z,80.94
2022-11-14T17:29:12.952Z,81.30
2022-11-14T17:31:45.789Z,81.50
2022-11-14T17:34:14.573Z,81.50
2022-11-14T17:36:42.820Z,81.80
2022-11-14T17:39:10.487Z,81.91
2022-11-14T17:41:38.633Z,81.63
2022-11-14T17:44:06.236Z,82.03
2022-11-14T17:46:35.247Z,82.74
2022-11-14T17:49:03.084Z,82.64
2022-11-14T17:51:30.845Z,82.63
2022-11-14T17:53:58.885Z,82.88
2022-11-14T17:56:27.505Z,83.20
2022-11-14T17:58:55.380Z,83.19
2022-11-14T18:01:24.677Z,83.19
2022-11-14T18:03:53.833Z,84.11
2022-11-14T18:06:24.236Z,83.67
2022-11-14T18:08:51.843Z,84.07
2022-11-14T18:11:20.474Z,84.10
2022-11-14T18:13:57.100Z,83.67
2022-11-14T18:16:31.409Z,83.55
2022-11-14T18:19:04.484Z,83.82
2022-11-14T18:21:32.166Z,83.98
2022-11-14T18:24:01.199Z,84.40
2022-11-14T18:26:30.514Z,84.39
2022-11-14T18:28:59.238Z,84.22
2022-11-14T18:31:27.294Z,84.44
2022-11-14T18:33:55.911Z,84.68
2022-11-14T18:36:25.597Z,84.52
2022-11-14T18:38:53.737Z,84.83
2022-11-14T18:41:22.248Z,85.16
2022-11-14T18:43:50.509Z,85.33
2022-11-14T18:46:20.262Z,85.38
2022-11-14T18:48:54.345Z,85.21
2022-11-14T18:51:23.719Z,85.37
2022-11-14T18:53:55.555Z,85.39
2022-11-14T18:56:25.642Z,85.60
2022-11-14T18:58:57.364Z,85.62
2022-11-14T19:01:26.987Z,85.52
2022-11-14T19:03:57.700Z,85.66
2022-11-14T19:06:25.893Z,85.40
2022-11-14T19:08:58.496Z,85.67
2022-11-14T19:11:43.808Z,85.57
2022-11-14T19:14:12.148Z,85.71
2022-11-14T19:16:39.990Z,85.50
2022-11-14T19:19:10.484Z,85.63
2022-11-14T19:21:39.127Z,86.02
2022-11-14T19:24:09.694Z,86.24
2022-11-14T19:26:37.557Z,86.42
2022-11-14T19:29:07.118Z,86.63
2022-11-14T19:31:35.006Z,86.27
2022-11-14T19:34:03.031Z,86.40
2022-11-14T19:36:58.191Z,86.55
2022-11-14T19:39:20.285Z,86.93
2022-11-14T19:41:47.982Z,87.09
2022-11-14T19:44:18.063Z,87.44
2022-11-14T19:46:48.809Z,87.49
2022-11-14T19:49:16.527Z,87.38
2022-11-14T19:51:44.417Z,87.93
2022-11-14T19:54:12.497Z,87.63
2022-11-14T19:56:41.660Z,87.81
2022-11-14T19:59:14.443Z,87.67
2022-11-14T20:01:47.044Z,87.56
2022-11-14T20:04:15.197Z,87.21
2022-11-14T20:06:43.128Z,87.14
2022-11-14T20:09:12.260Z,88.00
2022-11-14T20:11:41.397Z,88.04
2022-11-14T20:14:11.603Z,89.03
2022-11-14T20:16:39.573Z,88.80
2022-11-14T20:19:07.347Z,88.15
2022-11-14T20:21:35.783Z,87.91
2022-11-14T20:24:03.597Z,88.05
2022-11-14T20:26:31.426Z,88.00
2022-11-14T20:29:00.543Z,87.68
2022-11-14T20:31:30.322Z,88.11
2022-11-14T20:33:58.174Z,88.29
2022-11-14T20:36:38.949Z,88.21
2022-11-14T20:39:15.873Z,88.75
2022-11-14T20:41:44.025Z,88.26
2022-11-14T20:44:13.255Z,88.63
2022-11-14T20:46:41.479Z,88.69
2022-11-14T20:49:09.241Z,88.41
2022-11-14T20:51:36.979Z,87.83
2022-11-14T20:54:04.954Z,86.72
2022-11-14T20:56:32.826Z,85.88
2022-11-14T20:59:00.535Z,85.27
2022-11-14T21:01:29.723Z,85.00
2022-11-14T21:03:57.447Z,85.48
2022-11-14T21:06:25.085Z,85.94
2022-11-14T21:08:52.749Z,85.26
2022-11-14T21:11:22.309Z,85.75
2022-11-14T21:13:59.187Z,85.73
2022-11-14T21:16:32.374Z,86.40
2022-11-14T21:19:01.013Z,86.65
2022-11-14T21:21:30.369Z,86.92
2022-11-14T21:23:58.865Z,87.22
2022-11-14T21:26:28.438Z,87.35
2022-11-14T21:28:58.401Z,87.52
2022-11-14T21:31:27.970Z,88.02
2022-11-14T21:33:58.220Z,88.03
2022-11-14T21:39:16.380Z,87.56
2022-11-14T21:41:45.451Z,87.30
2022-11-14T21:44:16.342Z,87.20
2022-11-14T21:46:46.141Z,88.11
2022-11-14T21:49:15.356Z,87.71
2022-11-14T21:51:42.953Z,87.97
2022-11-14T21:54:10.797Z,88.24
2022-11-14T21:56:38.691Z,88.05
2022-11-14T21:59:14.065Z,87.65
2022-11-14T22:02:00.991Z,87.79
2022-11-14T22:04:30.329Z,87.55
2022-11-14T22:06:58.437Z,87.96
2022-11-14T22:09:27.513Z,88.08
2022-11-14T22:11:55.259Z,87.79
2022-11-14T22:14:22.954Z,87.02
2022-11-14T22:16:50.583Z,86.55
2022-11-14T22:19:18.778Z,85.74
2022-11-14T22:21:47.823Z,85.67
2022-11-14T22:24:15.412Z,86.26
2022-11-14T22:26:43.027Z,86.11
2022-11-14T22:29:10.654Z,85.67
2022-11-14T22:31:38.775Z,86.33
2022-11-14T22:34:06.469Z,86.29
2022-11-14T22:36:34.317Z,86.59
2022-11-14T22:39:03.431Z,85.98
2022-11-14T22:41:33.816Z,85.89
2022-11-14T22:44:02.221Z,86.20
2022-11-14T22:46:30.271Z,86.66
2022-11-14T22:48:58.261Z,86.63
2022-11-14T22:51:27.956Z,87.30
2022-11-14T22:53:57.045Z,87.24
2022-11-14T22:56:28.189Z,87.17
2022-11-14T22:58:56.471Z,87.10
2022-11-14T23:01:26.057Z,87.09
2022-11-14T23:03:55.887Z,86.77
2022-11-14T23:06:24.231Z,86.34
2022-11-14T23:08:52.678Z,86.21
2022-11-14T23:11:22.621Z,86.24
2022-11-14T23:13:53.392Z,86.08
2022-11-14T23:16:23.055Z,85.62
2022-11-14T23:18:52.040Z,84.69
2022-11-14T23:21:22.400Z,84.63
2022-11-14T23:23:53.798Z,84.34
2022-11-14T23:26:21.980Z,84.25
2022-11-14T23:28:51.299Z,84.06
2022-11-14T23:31:19.973Z,84.21
2022-11-14T23:33:48.108Z,84.20
2022-11-14T23:36:16.096Z,84.34
2022-11-14T23:38:43.934Z,84.09
2022-11-14T23:41:17.512Z,84.00
2022-11-14T23:43:45.732Z,83.16
2022-11-14T23:46:15.156Z,82.53
2022-11-14T23:48:42.900Z,81.71
2022-11-14T23:51:11.468Z,81.31
2022-11-14T23:53:39.058Z,81.12
2022-11-14T23:56:06.875Z,81.15
2022-11-14T23:58:34.521Z,81.26
